createdAt,value
2023-01-03T00:04:35.521Z,101112.84
2023-01-03T00:09:38.381Z,101121.66
2023-01-03T00:14:43.531Z,101124.47
2023-01-03T00:19:47.051Z,101133.63
2023-01-03T00:24:50.273Z,101137.19
2023-01-03T00:29:54.555Z,101136.09
2023-01-03T00:35:02.991Z,101145.25
2023-01-03T00:40:08.738Z,101146.84
2023-01-03T00:45:17.587Z,101143.63
2023-01-03T00:50:22.429Z,101150.63
2023-01-03T00:55:25.364Z,101154.28
2023-01-03T01:00:29.731Z,101169.34
2023-01-03T01:05:32.480Z,101163.09
2023-01-03T01:10:35.270Z,101175.69
2023-01-03T01:15:39.439Z,101188.28
2023-01-03T01:20:42.223Z,101204.22
2023-01-03T01:25:44.964Z,101207.97
2023-01-03T01:30:49.255Z,101221.31
2023-01-03T01:35:52.072Z,101221.44
2023-01-03T01:40:54.891Z,101231.34
2023-01-03T01:45:59.206Z,101235.84
2023-01-03T01:51:02.022Z,101234.88
2023-01-03T01:56:06.231Z,101235.84
2023-01-03T02:01:11.739Z,101230.13
2023-01-03T02:06:15.585Z,101233.06
2023-01-03T02:11:32.661Z,101236.72
2023-01-03T02:16:58.062Z,101240.38
2023-01-03T02:22:50.492Z,101245.44
2023-01-03T02:28:42.008Z,101234.88
2023-01-03T02:33:48.097Z,101243.94
2023-01-03T02:38:53.991Z,101254.69
2023-01-03T02:43:57.583Z,101258.00
2023-01-03T02:49:03.949Z,101266.09
2023-01-03T02:54:07.917Z,101259.22
2023-01-03T02:59:12.842Z,101281.50
2023-01-03T03:04:16.978Z,101277.94
2023-01-03T03:09:19.803Z,101285.78
2023-01-03T03:14:24.938Z,101282.47
2023-01-03T03:19:48.016Z,101282.56
2023-01-03T03:24:50.838Z,101288.47
2023-01-03T03:29:53.649Z,101290.31
2023-01-03T03:34:57.890Z,101283.97
2023-01-03T03:40:18.071Z,101294.81
2023-01-03T03:45:25.904Z,101297.63
2023-01-03T03:50:31.799Z,101302.91
2023-01-03T03:55:35.909Z,101308.28
2023-01-03T04:00:39.797Z,101307.53
2023-01-03T04:05:47.218Z,101314.00
2023-01-03T04:10:50.382Z,101324.53
2023-01-03T04:15:53.209Z,101323.69
2023-01-03T04:20:57.384Z,101329.81
2023-01-03T04:26:00.126Z,101333.69
2023-01-03T04:31:02.885Z,101336.56
2023-01-03T04:36:07.720Z,101337.53
2023-01-03T04:41:10.602Z,101336.22
2023-01-03T04:46:13.426Z,101356.59
2023-01-03T04:51:17.568Z,101356.03
2023-01-03T04:56:25.081Z,101363.53
2023-01-03T05:01:27.936Z,101372.00
2023-01-03T05:06:33.548Z,101377.88
2023-01-03T05:11:36.426Z,101379.16
2023-01-03T05:16:39.249Z,101381.38
2023-01-03T05:22:00.806Z,101382.69
2023-01-03T05:27:04.322Z,101393.81
2023-01-03T05:32:07.188Z,101392.38
2023-01-03T05:37:11.507Z,101391.63
2023-01-03T05:42:14.243Z,101395.50
2023-01-03T05:47:16.980Z,101391.25
2023-01-03T05:52:21.378Z,101412.09
2023-01-03T05:57:24.243Z,101415.16
2023-01-03T06:02:27.004Z,101430.75
2023-01-03T06:07:33.917Z,101437.25
2023-01-03T06:12:37.725Z,101437.53
2023-01-03T06:17:58.309Z,101433.28
2023-01-03T06:23:02.535Z,101445.19
2023-01-03T06:28:05.556Z,101451.69
2023-01-03T06:33:08.387Z,101444.69
2023-01-03T06:38:12.497Z,101448.56
2023-01-03T06:43:15.334Z,101449.78
2023-01-03T06:48:35.549Z,101459.88
2023-01-03T06:53:40.409Z,101470.78
2023-01-03T06:58:43.114Z,101470.19
2023-01-03T07:03:45.880Z,101478.53
2023-01-03T07:08:50.074Z,101492.13
2023-01-03T07:14:03.343Z,101493.41
2023-01-03T07:19:06.892Z,101497.97
2023-01-03T07:24:12.767Z,101502.66
2023-01-03T07:29:15.559Z,101502.91
2023-01-03T07:34:19.082Z,101508.47
2023-01-03T07:39:24.211Z,101525.63
2023-01-03T07:44:27.295Z,101525.03
2023-01-03T07:49:30.195Z,101530.50
2023-01-03T07:54:34.325Z,101538.72
2023-01-03T07:59:37.181Z,101538.81
2023-01-03T08:04:40.042Z,101537.16
2023-01-03T08:10:01.507Z,101537.34
2023-01-03T08:15:04.947Z,101537.34
2023-01-03T08:20:08.908Z,101555.81
2023-01-03T08:25:13.188Z,101571.69
2023-01-03T08:30:15.973Z,101571.69
2023-01-03T08:35:18.915Z,101577.16
2023-01-03T08:40:23.395Z,101568.34
2023-01-03T08:45:26.566Z,101568.72
2023-01-03T08:50:30.416Z,101569.31
2023-01-03T08:55:34.658Z,101561.34
2023-01-03T09:00:37.620Z,101570.53
2023-01-03T09:05:40.417Z,101581.00
2023-01-03T09:10:47.599Z,101595.88
2023-01-03T09:15:50.698Z,101596.59
2023-01-03T09:20:53.489Z,101590.28
2023-01-03T09:25:57.597Z,101599.88
2023-01-03T09:31:00.478Z,101592.88
2023-01-03T09:36:03.316Z,101587.50
2023-01-03T09:41:08.887Z,101588.47
2023-01-03T09:46:24.896Z,101595.66
2023-01-03T09:51:45.908Z,101596.66
2023-01-03T09:57:07.438Z,101592.34
2023-01-03T10:02:38.168Z,101596.94
2023-01-03T10:07:50.588Z,101595.97
2023-01-03T10:12:59.962Z,101592.44
2023-01-03T10:18:08.340Z,101579.66
2023-01-03T10:23:11.222Z,101581.81
2023-01-03T10:28:18.324Z,101590.72
2023-01-03T10:33:29.627Z,101590.88
2023-01-03T10:38:36.819Z,101588.81
2023-01-03T10:43:46.866Z,101579.06
2023-01-03T10:49:26.027Z,101580.41
2023-01-03T10:54:14.243Z,101579.13
2023-01-03T10:59:22.623Z,101569.13
2023-01-03T11:04:25.402Z,101574.19
2023-01-03T11:09:28.936Z,101582.88
2023-01-03T11:14:33.178Z,101581.13
2023-01-03T11:19:35.994Z,101575.84
2023-01-03T11:24:47.888Z,101577.75
2023-01-03T11:30:03.653Z,101571.78
2023-01-03T11:35:24.485Z,101574.72
2023-01-03T11:40:31.362Z,101577.41
2023-01-03T11:46:00.632Z,101565.56
2023-01-03T11:51:09.691Z,101558.28
2023-01-03T11:56:19.754Z,101562.50
2023-01-03T12:01:35.436Z,101562.00
2023-01-03T12:06:44.396Z,101571.28
2023-01-03T12:12:07.545Z,101563.22
2023-01-03T12:17:14.339Z,101562.16
2023-01-03T12:22:19.209Z,101557.50
2023-01-03T12:27:25.555Z,101557.34
2023-01-03T12:32:34.880Z,101553.50
2023-01-03T12:37:37.780Z,101551.34
2023-01-03T12:42:42.139Z,101535.69
2023-01-03T12:47:50.278Z,101539.22
2023-01-03T12:52:56.531Z,101537.66
2023-01-03T12:58:10.413Z,101533.25
2023-01-03T13:03:19.498Z,101535.69
2023-01-03T13:08:30.012Z,101524.72
2023-01-03T13:13:32.882Z,101522.47
2023-01-03T13:18:37.628Z,101518.03
2023-01-03T13:23:58.228Z,101524.34
2023-01-03T13:29:42.156Z,101530.06
2023-01-03T13:34:46.290Z,101521.31
2023-01-03T13:40:11.431Z,101527.81
2023-01-03T13:45:49.046Z,101535.09
2023-01-03T13:51:07.625Z,101530.88
2023-01-03T13:56:29.201Z,101528.09
2023-01-03T14:01:50.199Z,101525.13
2023-01-03T14:07:01.365Z,101525.66
2023-01-03T14:12:38.105Z,101532.31
2023-01-03T14:17:44.151Z,101527.22
2023-01-03T14:22:49.397Z,101529.47
2023-01-03T14:27:52.202Z,101533.44
2023-01-03T14:32:55.010Z,101534.75
2023-01-03T14:38:04.715Z,101535.59
2023-01-03T14:43:17.688Z,101528.69
2023-01-03T14:48:24.370Z,101536.47
2023-01-03T14:53:28.484Z,101538.22
2023-01-03T14:58:33.934Z,101528.59
2023-01-03T15:03:38.000Z,101538.63
2023-01-03T15:08:44.329Z,101543.41
2023-01-03T15:13:53.913Z,101548.06
2023-01-03T15:19:02.097Z,101541.44
2023-01-03T15:24:06.856Z,101556.47
2023-01-03T15:29:14.153Z,101553.25
2023-01-03T15:34:17.814Z,101556.72
2023-01-03T15:39:23.260Z,101556.47
2023-01-03T15:44:27.438Z,101563.28
2023-01-03T15:49:30.221Z,101563.91
2023-01-03T15:54:34.756Z,101579.66
2023-01-03T15:59:43.174Z,101579.56
2023-01-03T16:04:46.477Z,101583.88
2023-01-03T16:09:50.779Z,101588.34
2023-01-03T16:14:54.274Z,101589.09
2023-01-03T16:19:57.836Z,101594.22
2023-01-03T16:25:02.015Z,101596.81
2023-01-03T16:30:05.186Z,101592.22
2023-01-03T16:35:13.168Z,101594.81
2023-01-03T16:40:18.109Z,101601.91
2023-01-03T16:45:20.995Z,101591.00
2023-01-03T16:50:23.889Z,101586.41
2023-01-03T16:55:29.758Z,101602.44
2023-01-03T17:00:33.674Z,101605.13
2023-01-03T17:05:37.291Z,101598.78
2023-01-03T17:10:41.663Z,101601.47
2023-01-03T17:15:44.574Z,101604.00
2023-01-03T17:20:47.577Z,101603.72
2023-01-03T17:25:51.757Z,101608.41
2023-01-03T17:30:56.590Z,101603.63
2023-01-03T17:35:59.527Z,101594.44
2023-01-03T17:41:03.706Z,101603.28
2023-01-03T17:46:26.934Z,101607.59
2023-01-03T17:51:30.048Z,101610.38
2023-01-03T17:56:34.421Z,101620.81
2023-01-03T18:01:37.465Z,101614.44
2023-01-03T18:06:40.348Z,101613.38
2023-01-03T18:11:44.510Z,101601.69
2023-01-03T18:16:53.140Z,101602.28
2023-01-03T18:21:58.867Z,101595.88
2023-01-03T18:27:03.010Z,101600.88
2023-01-03T18:32:11.486Z,101597.81
2023-01-03T18:37:14.376Z,101597.66
2023-01-03T18:42:36.055Z,101598.31
2023-01-03T18:47:38.823Z,101593.72
2023-01-03T18:52:41.796Z,101602.38
2023-01-03T18:57:46.062Z,101601.25
2023-01-03T19:02:49.293Z,101600.09
2023-01-03T19:07:52.783Z,101589.94
2023-01-03T19:12:57.600Z,101599.63
2023-01-03T19:18:01.326Z,101598.59
2023-01-03T19:23:04.189Z,101600.22
2023-01-03T19:28:10.857Z,101595.91
2023-01-03T19:33:14.385Z,101597.44
2023-01-03T19:38:17.234Z,101595.34
2023-01-03T19:43:22.330Z,101590.63
2023-01-03T19:48:26.296Z,101590.53
2023-01-03T19:53:29.051Z,101592.16
2023-01-03T19:58:34.457Z,101599.25
2023-01-03T20:03:39.663Z,101584.78
2023-01-03T20:08:42.585Z,101590.94
2023-01-03T20:13:47.155Z,101589.97
2023-01-03T20:18:50.006Z,101583.53
2023-01-03T20:23:54.098Z,101569.97
2023-01-03T20:28:58.763Z,101572.66
2023-01-03T20:34:04.624Z,101555.69
2023-01-03T20:39:07.610Z,101556.53
2023-01-03T20:44:12.036Z,101556.47
2023-01-03T20:49:16.655Z,101546.94
2023-01-03T20:54:19.517Z,101548.56
2023-01-03T20:59:24.373Z,101549.44
2023-01-03T21:04:27.228Z,101540.72
2023-01-03T21:09:30.381Z,101535.91
2023-01-03T21:14:34.504Z,101537.06
2023-01-03T21:19:39.095Z,101547.72
2023-01-03T21:24:45.834Z,101541.56
2023-01-03T21:29:50.353Z,101531.88
2023-01-03T21:34:53.166Z,101529.97
2023-01-03T21:39:55.963Z,101525.44
2023-01-03T21:45:00.124Z,101514.69
2023-01-03T21:50:02.955Z,101510.28
2023-01-03T21:55:06.548Z,101516.63
2023-01-03T22:00:12.463Z,101512.00
2023-01-03T22:05:15.495Z,101511.25
2023-01-03T22:10:18.973Z,101515.06
2023-01-03T22:15:23.267Z,101519.78
2023-01-03T22:20:26.909Z,101514.63
2023-01-03T22:25:29.761Z,101506.72
2023-01-03T22:30:33.885Z,101505.41
2023-01-03T22:35:36.795Z,101501.16
2023-01-03T22:40:39.729Z,101499.63
2023-01-03T22:45:43.940Z,101497.97
2023-01-03T22:50:46.748Z,101500.88
2023-01-03T22:55:49.664Z,101498.09
2023-01-03T23:00:53.894Z,101498.94
2023-01-03T23:05:58.166Z,101488.03
2023-01-03T23:11:19.752Z,101476.31
2023-01-03T23:16:24.026Z,101476.69
2023-01-03T23:21:26.870Z,101478.50
2023-01-03T23:26:29.685Z,101467.56
2023-01-03T23:31:33.853Z,101459.03
2023-01-03T23:36:36.712Z,101455.31
2023-01-03T23:41:39.904Z,101452.41
2023-01-03T23:46:44.056Z,101447.13
2023-01-03T23:51:46.833Z,101445.50
2023-01-03T23:56:49.625Z,101431.50
